createdAt,value
2023-03-03T00:01:20.431Z,0.82
2023-03-03T00:03:48.038Z,0.51
2023-03-03T00:06:15.433Z,0.68
2023-03-03T00:08:43.227Z,0.73
2023-03-03T00:11:11.008Z,0.57
2023-03-03T00:13:51.008Z,0.62
2023-03-03T00:16:26.154Z,0.70
2023-03-03T00:18:54.752Z,0.73
2023-03-03T00:21:21.894Z,0.71
2023-03-03T00:23:49.654Z,0.70
2023-03-03T00:26:21.786Z,0.80
2023-03-03T00:28:54.714Z,0.83
2023-03-03T00:31:35.379Z,0.53
2023-03-03T00:34:18.556Z,0.80
2023-03-03T00:36:49.035Z,0.63
2023-03-03T00:39:23.937Z,0.48
2023-03-03T00:41:51.253Z,0.55
2023-03-03T00:44:42.343Z,0.40
2023-03-03T00:47:35.715Z,0.18
2023-03-03T00:50:06.266Z,0.31
2023-03-03T00:52:39.430Z,0.36
2023-03-03T00:55:08.624Z,0.39
2023-03-03T00:57:35.882Z,0.45
2023-03-03T01:00:05.800Z,0.33
2023-03-03T01:02:33.648Z,0.54
2023-03-03T01:05:01.276Z,0.36
2023-03-03T01:07:28.502Z,0.56
2023-03-03T01:09:55.987Z,0.44
2023-03-03T01:12:24.388Z,0.43
2023-03-03T01:14:54.937Z,0.44
2023-03-03T01:17:22.312Z,0.24
2023-03-03T01:19:50.055Z,0.18
2023-03-03T01:22:17.415Z,0.15
2023-03-03T01:24:44.914Z,-0.03
2023-03-03T01:27:12.422Z,0.02
2023-03-03T01:29:39.959Z,0.25
2023-03-03T01:32:07.254Z,0.20
2023-03-03T01:34:34.897Z,0.08
2023-03-03T01:37:02.370Z,0.31
2023-03-03T01:39:29.946Z,0.22
2023-03-03T01:41:57.347Z,0.13
2023-03-03T01:44:24.839Z,0.42
2023-03-03T01:46:55.570Z,0.42
2023-03-03T01:49:33.492Z,0.46
2023-03-03T01:52:05.306Z,0.48
2023-03-03T01:54:47.689Z,0.56
2023-03-03T01:57:19.458Z,0.26
2023-03-03T01:59:50.705Z,0.60
2023-03-03T02:02:19.684Z,0.51
2023-03-03T02:04:47.350Z,0.70
2023-03-03T02:07:15.835Z,0.52
2023-03-03T02:09:58.047Z,0.63
2023-03-03T02:12:49.351Z,0.64
2023-03-03T02:15:20.370Z,0.66
2023-03-03T02:17:50.154Z,0.72
2023-03-03T02:20:29.976Z,0.77
2023-03-03T02:23:04.009Z,0.86
2023-03-03T02:25:44.075Z,0.86
2023-03-03T02:28:11.522Z,0.59
2023-03-03T02:30:39.822Z,0.61
2023-03-03T02:33:09.012Z,0.74
2023-03-03T02:35:39.346Z,0.88
2023-03-03T02:38:06.954Z,0.83
2023-03-03T02:40:40.495Z,0.88
2023-03-03T02:43:10.324Z,1.11
2023-03-03T02:45:45.404Z,1.17
2023-03-03T02:48:12.792Z,1.26
2023-03-03T02:50:40.374Z,1.15
2023-03-03T02:53:07.774Z,1.12
2023-03-03T02:55:35.333Z,1.33
2023-03-03T02:58:02.622Z,1.19
2023-03-03T03:00:30.473Z,1.21
2023-03-03T03:02:57.737Z,1.31
2023-03-03T03:05:25.350Z,1.32
2023-03-03T03:07:52.557Z,1.26
2023-03-03T03:10:20.937Z,1.55
2023-03-03T03:12:48.570Z,1.74
2023-03-03T03:15:16.238Z,1.51
2023-03-03T03:17:43.754Z,1.50
2023-03-03T03:20:13.060Z,1.52
2023-03-03T03:22:40.428Z,1.66
2023-03-03T03:25:10.209Z,1.84
2023-03-03T03:27:37.943Z,1.62
2023-03-03T03:30:06.276Z,1.62
2023-03-03T03:32:33.584Z,1.95
2023-03-03T03:35:01.841Z,1.77
2023-03-03T03:37:29.452Z,1.89
2023-03-03T03:39:57.121Z,1.96
2023-03-03T03:42:25.228Z,1.81
2023-03-03T03:44:52.898Z,1.73
2023-03-03T03:47:20.204Z,1.81
2023-03-03T03:49:47.912Z,1.91
2023-03-03T03:52:15.568Z,1.95
2023-03-03T03:54:43.266Z,1.70
2023-03-03T03:57:10.527Z,1.59
2023-03-03T03:59:38.878Z,1.75
2023-03-03T04:02:06.323Z,1.86
2023-03-03T04:04:34.054Z,1.76
2023-03-03T04:07:01.382Z,1.73
2023-03-03T04:09:28.966Z,1.68
2023-03-03T04:11:56.308Z,2.08
2023-03-03T04:14:24.469Z,1.71
2023-03-03T04:16:51.801Z,1.96
2023-03-03T04:19:19.514Z,2.01
2023-03-03T04:21:47.759Z,2.06
2023-03-03T04:24:15.347Z,1.90
2023-03-03T04:26:42.649Z,2.06
2023-03-03T04:29:11.933Z,2.02
2023-03-03T04:31:41.274Z,1.98
2023-03-03T04:34:10.546Z,1.97
2023-03-03T04:36:38.045Z,2.30
2023-03-03T04:39:05.812Z,2.17
2023-03-03T04:41:33.531Z,2.27
2023-03-03T04:44:01.296Z,2.56
2023-03-03T04:46:28.612Z,2.03
2023-03-03T04:48:57.022Z,2.46
2023-03-03T04:51:26.191Z,2.48
2023-03-03T04:53:53.884Z,2.28
2023-03-03T04:56:21.129Z,2.21
2023-03-03T04:58:49.597Z,2.26
2023-03-03T05:01:19.455Z,2.41
2023-03-03T05:03:47.067Z,2.02
2023-03-03T05:06:14.458Z,2.21
2023-03-03T05:08:43.304Z,1.99
2023-03-03T05:11:11.199Z,2.15
2023-03-03T05:13:38.673Z,2.21
2023-03-03T05:16:06.374Z,2.42
2023-03-03T05:18:33.949Z,2.42
2023-03-03T05:21:01.710Z,2.02
2023-03-03T05:23:29.685Z,2.31
2023-03-03T05:25:57.000Z,2.19
2023-03-03T05:28:24.514Z,2.08
2023-03-03T05:30:51.844Z,2.06
2023-03-03T05:33:19.695Z,2.36
2023-03-03T05:35:46.946Z,2.29
2023-03-03T05:38:14.530Z,2.08
2023-03-03T05:40:41.795Z,2.20
2023-03-03T05:43:09.507Z,2.18
2023-03-03T05:45:36.860Z,2.03
2023-03-03T05:48:05.041Z,2.04
2023-03-03T05:50:32.941Z,2.36
2023-03-03T05:53:00.492Z,2.50
2023-03-03T05:55:27.839Z,2.89
2023-03-03T05:57:55.710Z,2.82
2023-03-03T06:00:23.458Z,3.15
2023-03-03T06:02:51.103Z,3.23
2023-03-03T06:05:18.622Z,3.44
2023-03-03T06:07:46.146Z,3.62
2023-03-03T06:10:13.430Z,3.99
2023-03-03T06:12:42.740Z,4.61
2023-03-03T06:15:10.811Z,5.04
2023-03-03T06:17:38.646Z,5.35
2023-03-03T06:20:06.959Z,5.81
2023-03-03T06:22:34.522Z,7.90
2023-03-03T06:25:01.742Z,9.20
2023-03-03T06:27:29.474Z,9.21
2023-03-03T06:29:56.887Z,10.01
2023-03-03T06:32:24.566Z,10.68
2023-03-03T06:34:51.964Z,9.94
2023-03-03T06:37:19.488Z,11.11
2023-03-03T06:39:46.798Z,11.20
2023-03-03T06:42:14.324Z,12.61
2023-03-03T06:44:41.714Z,12.07
2023-03-03T06:47:09.236Z,13.05
2023-03-03T06:49:36.636Z,12.97
2023-03-03T06:52:13.723Z,13.07
2023-03-03T06:54:41.341Z,12.64
2023-03-03T06:57:23.525Z,15.80
2023-03-03T06:59:54.584Z,14.76
2023-03-03T07:02:23.045Z,16.29
2023-03-03T07:04:50.504Z,16.44
2023-03-03T07:07:20.951Z,16.42
2023-03-03T07:09:57.583Z,17.13
2023-03-03T07:12:30.692Z,18.52
2023-03-03T07:15:01.079Z,16.53
2023-03-03T07:17:28.696Z,17.01
2023-03-03T07:19:56.080Z,16.27
2023-03-03T07:22:27.964Z,14.54
2023-03-03T07:25:01.934Z,11.90
2023-03-03T07:27:31.416Z,9.69
2023-03-03T07:30:24.998Z,9.99
2023-03-03T07:32:56.774Z,11.55
2023-03-03T07:35:41.116Z,10.88
2023-03-03T07:38:23.396Z,11.13
2023-03-03T07:40:56.281Z,10.53
2023-03-03T07:43:49.597Z,11.57
2023-03-03T07:46:43.560Z,12.71
2023-03-03T07:49:36.055Z,11.95
2023-03-03T07:52:18.523Z,11.58
2023-03-03T07:54:47.429Z,12.53
2023-03-03T07:57:17.673Z,12.79
2023-03-03T07:59:50.903Z,13.47
2023-03-03T08:02:38.400Z,13.26
2023-03-03T08:05:34.889Z,11.95
2023-03-03T08:08:09.610Z,12.14
2023-03-03T08:10:43.574Z,11.71
2023-03-03T08:13:20.995Z,12.42
2023-03-03T08:16:18.077Z,13.34
2023-03-03T08:18:47.815Z,13.20
2023-03-03T08:21:18.004Z,13.18
2023-03-03T08:23:46.122Z,12.90
2023-03-03T08:26:14.170Z,13.20
2023-03-03T08:28:41.436Z,11.89
2023-03-03T08:31:18.366Z,13.07
2023-03-03T08:33:49.782Z,12.28
2023-03-03T08:36:17.356Z,12.51
2023-03-03T08:38:44.855Z,12.58
2023-03-03T08:41:12.589Z,12.23
2023-03-03T08:43:40.236Z,12.75
2023-03-03T08:46:10.378Z,11.46
2023-03-03T08:48:38.638Z,13.33
2023-03-03T08:51:06.795Z,13.65
2023-03-03T08:53:36.669Z,13.13
2023-03-03T08:56:05.107Z,11.07
2023-03-03T08:58:35.541Z,11.12
2023-03-03T09:01:04.203Z,10.94
2023-03-03T09:03:31.483Z,10.71
2023-03-03T09:05:59.181Z,11.09
2023-03-03T09:08:26.484Z,10.47
2023-03-03T09:10:54.051Z,10.34
2023-03-03T09:13:21.358Z,11.36
2023-03-03T09:15:50.575Z,11.87
2023-03-03T09:18:22.553Z,12.33
2023-03-03T09:20:54.617Z,13.00
2023-03-03T09:23:38.215Z,11.86
2023-03-03T09:26:11.776Z,10.59
2023-03-03T09:28:39.064Z,11.11
2023-03-03T09:31:24.305Z,10.87
2023-03-03T09:33:55.196Z,10.07
2023-03-03T09:36:30.417Z,11.25
2023-03-03T09:38:58.484Z,12.80
2023-03-03T09:41:44.647Z,14.86
2023-03-03T09:44:42.830Z,14.08
2023-03-03T09:47:46.982Z,15.69
2023-03-03T09:50:29.536Z,15.25
2023-03-03T09:53:28.682Z,14.62
2023-03-03T09:56:01.951Z,13.85
2023-03-03T09:58:38.166Z,13.84
2023-03-03T10:01:36.256Z,13.88
2023-03-03T10:04:22.582Z,15.22
2023-03-03T10:07:11.491Z,13.29
2023-03-03T10:09:48.081Z,13.32
2023-03-03T10:12:33.839Z,14.46
2023-03-03T10:15:04.233Z,14.65
2023-03-03T10:17:44.896Z,14.61
2023-03-03T10:20:47.516Z,13.82
2023-03-03T10:23:40.336Z,14.37
2023-03-03T10:26:17.042Z,14.04
2023-03-03T10:28:54.528Z,14.25
2023-03-03T10:31:33.305Z,13.28
2023-03-03T10:34:19.741Z,13.20
2023-03-03T10:37:09.266Z,12.04
2023-03-03T10:39:39.895Z,13.42
2023-03-03T10:42:16.496Z,12.53
2023-03-03T10:45:19.584Z,13.44
2023-03-03T10:48:08.303Z,13.01
2023-03-03T10:50:56.868Z,12.99
2023-03-03T10:54:08.937Z,12.42
2023-03-03T10:56:58.052Z,12.69
2023-03-03T10:59:47.454Z,13.31
2023-03-03T11:02:42.379Z,12.30
2023-03-03T11:05:15.908Z,11.53
2023-03-03T11:07:49.072Z,12.51
2023-03-03T11:10:44.601Z,12.38
2023-03-03T11:13:38.110Z,11.59
2023-03-03T11:16:11.713Z,11.51
2023-03-03T11:19:03.726Z,9.95
2023-03-03T11:21:34.271Z,9.32
2023-03-03T11:24:25.804Z,8.95
2023-03-03T11:27:41.410Z,9.04
2023-03-03T11:30:30.193Z,8.94
2023-03-03T11:33:03.470Z,8.55
2023-03-03T11:35:51.985Z,7.90
2023-03-03T11:38:45.351Z,8.24
2023-03-03T11:41:43.529Z,8.12
2023-03-03T11:44:40.899Z,8.04
2023-03-03T11:47:31.787Z,8.21
2023-03-03T11:50:04.954Z,8.28
2023-03-03T11:52:46.275Z,8.07
2023-03-03T11:55:17.641Z,8.01
2023-03-03T11:57:52.115Z,7.98
2023-03-03T12:00:32.715Z,7.66
2023-03-03T12:03:13.344Z,8.12
2023-03-03T12:05:51.746Z,7.58
2023-03-03T12:08:56.476Z,7.50
2023-03-03T12:11:32.256Z,7.59
2023-03-03T12:14:36.986Z,7.67
2023-03-03T12:17:08.206Z,7.77
2023-03-03T12:19:42.843Z,7.91
2023-03-03T12:22:48.644Z,7.96
2023-03-03T12:25:30.144Z,8.16
2023-03-03T12:28:08.052Z,8.23
2023-03-03T12:30:38.366Z,8.38
2023-03-03T12:33:37.864Z,8.33
2023-03-03T12:36:14.545Z,8.28
2023-03-03T12:39:00.108Z,8.02
2023-03-03T12:41:42.303Z,8.17
2023-03-03T12:44:21.873Z,8.51
2023-03-03T12:47:02.541Z,8.44
2023-03-03T12:50:01.151Z,8.47
2023-03-03T12:52:58.585Z,8.29
2023-03-03T12:55:31.960Z,8.32
2023-03-03T12:58:17.441Z,8.54
2023-03-03T13:00:48.384Z,8.06
2023-03-03T13:03:59.353Z,7.87
2023-03-03T13:06:52.988Z,8.11
2023-03-03T13:09:43.347Z,8.06
2023-03-03T13:12:32.784Z,7.65
2023-03-03T13:15:03.393Z,7.90
2023-03-03T13:17:56.405Z,8.17
2023-03-03T13:20:45.572Z,8.18
2023-03-03T13:23:16.057Z,8.19
2023-03-03T13:26:08.086Z,8.17
2023-03-03T13:28:53.955Z,8.16
2023-03-03T13:31:24.259Z,8.06
2023-03-03T13:33:57.804Z,7.67
2023-03-03T13:36:37.396Z,8.08
2023-03-03T13:39:25.913Z,8.07
2023-03-03T13:42:01.666Z,7.64
2023-03-03T13:44:36.321Z,7.63
2023-03-03T13:47:12.876Z,8.10
2023-03-03T13:49:56.110Z,7.88
2023-03-03T13:52:39.219Z,7.88
2023-03-03T13:55:21.606Z,8.06
2023-03-03T13:57:56.310Z,8.27
2023-03-03T14:00:43.221Z,8.08
2023-03-03T14:03:23.285Z,8.32
2023-03-03T14:05:56.437Z,8.01
2023-03-03T14:08:44.996Z,8.43
2023-03-03T14:11:17.416Z,8.20
2023-03-03T14:14:04.853Z,8.22
2023-03-03T14:16:38.569Z,8.26
2023-03-03T14:19:28.538Z,8.51
2023-03-03T14:22:23.964Z,8.33
2023-03-03T14:25:17.701Z,8.08
2023-03-03T14:27:48.038Z,8.26
2023-03-03T14:30:30.560Z,8.20
2023-03-03T14:33:03.191Z,8.25
2023-03-03T14:35:34.269Z,8.28
2023-03-03T14:38:04.677Z,8.09
2023-03-03T14:40:34.469Z,8.37
2023-03-03T14:43:04.951Z,8.45
2023-03-03T14:45:39.495Z,8.13
2023-03-03T14:48:17.505Z,7.88
2023-03-03T14:50:53.871Z,7.70
2023-03-03T14:53:32.946Z,7.52
2023-03-03T14:56:15.452Z,7.35
2023-03-03T14:58:43.860Z,7.40
2023-03-03T15:01:15.784Z,7.67
2023-03-03T15:03:52.576Z,7.64
2023-03-03T15:06:41.647Z,7.95
2023-03-03T15:09:24.351Z,7.42
2023-03-03T15:11:56.739Z,7.39
2023-03-03T15:14:44.640Z,7.15
2023-03-03T15:17:25.850Z,6.72
2023-03-03T15:20:02.100Z,7.13
2023-03-03T15:22:47.586Z,7.31
2023-03-03T15:25:24.142Z,6.84
2023-03-03T15:28:22.702Z,6.88
2023-03-03T15:30:55.982Z,7.22
2023-03-03T15:33:33.693Z,7.13
2023-03-03T15:36:14.521Z,7.19
2023-03-03T15:39:00.535Z,6.77
2023-03-03T15:41:52.772Z,6.70
2023-03-03T15:44:45.312Z,6.59
2023-03-03T15:47:41.395Z,6.54
2023-03-03T15:50:27.550Z,6.70
2023-03-03T15:53:20.147Z,6.68
2023-03-03T15:55:53.073Z,6.35
2023-03-03T15:58:42.092Z,6.55
2023-03-03T16:01:40.491Z,6.58
2023-03-03T16:04:14.648Z,6.71
2023-03-03T16:06:54.181Z,6.52
2023-03-03T16:09:47.485Z,6.54
2023-03-03T16:12:33.359Z,6.28
2023-03-03T16:15:16.328Z,6.16
2023-03-03T16:17:50.562Z,6.09
2023-03-03T16:20:35.028Z,6.12
2023-03-03T16:23:20.872Z,6.06
2023-03-03T16:25:48.422Z,5.99
2023-03-03T16:28:44.560Z,5.86
2023-03-03T16:31:34.150Z,6.07
2023-03-03T16:34:23.817Z,5.79
2023-03-03T16:37:01.662Z,5.78
2023-03-03T16:39:47.353Z,5.71
2023-03-03T16:42:31.400Z,5.44
2023-03-03T16:44:58.580Z,5.35
2023-03-03T16:47:26.098Z,5.42
2023-03-03T16:50:21.341Z,5.30
2023-03-03T16:52:57.040Z,4.94
2023-03-03T16:55:30.767Z,5.27
2023-03-03T16:58:35.504Z,5.16
2023-03-03T17:01:43.609Z,5.05
2023-03-03T17:04:27.920Z,5.06
2023-03-03T17:07:44.853Z,4.64
2023-03-03T17:10:35.582Z,4.99
2023-03-03T17:13:29.958Z,5.14
2023-03-03T17:16:00.519Z,5.19
2023-03-03T17:19:09.837Z,4.82
2023-03-03T17:22:01.769Z,4.94
2023-03-03T17:24:41.223Z,4.91
2023-03-03T17:27:14.304Z,5.01
2023-03-03T17:30:09.942Z,4.79
2023-03-03T17:33:03.690Z,4.91
2023-03-03T17:35:55.160Z,4.81
2023-03-03T17:38:28.758Z,4.74
2023-03-03T17:41:02.267Z,4.80
2023-03-03T17:43:52.786Z,4.84
2023-03-03T17:46:39.818Z,4.78
2023-03-03T17:49:33.823Z,4.81
2023-03-03T17:52:21.398Z,4.68
2023-03-03T17:55:45.958Z,4.86
2023-03-03T17:58:23.243Z,4.65
2023-03-03T18:01:05.029Z,4.60
2023-03-03T18:03:47.380Z,4.45
2023-03-03T18:06:32.990Z,4.59
2023-03-03T18:09:18.783Z,4.57
2023-03-03T18:12:05.233Z,4.54
2023-03-03T18:14:35.968Z,4.37
2023-03-03T18:17:32.111Z,4.54
2023-03-03T18:20:02.808Z,4.37
2023-03-03T18:22:34.138Z,4.59
2023-03-03T18:25:23.236Z,4.37
2023-03-03T18:27:59.590Z,4.35
2023-03-03T18:30:35.311Z,4.37
2023-03-03T18:33:08.363Z,4.50
2023-03-03T18:35:40.665Z,4.42
2023-03-03T18:38:17.152Z,4.27
2023-03-03T18:41:00.129Z,4.28
2023-03-03T18:43:45.585Z,4.16
2023-03-03T18:46:25.153Z,4.31
2023-03-03T18:49:07.170Z,4.16
2023-03-03T18:51:34.880Z,4.18
2023-03-03T18:54:31.023Z,4.31
2023-03-03T18:57:02.927Z,3.94
2023-03-03T18:59:37.055Z,4.06
2023-03-03T19:02:09.090Z,3.98
2023-03-03T19:04:38.355Z,3.76
2023-03-03T19:07:26.754Z,3.94
2023-03-03T19:10:03.786Z,4.03
2023-03-03T19:12:54.694Z,3.85
2023-03-03T19:15:31.251Z,3.87
2023-03-03T19:18:26.904Z,3.83
2023-03-03T19:21:06.076Z,3.52
2023-03-03T19:23:59.823Z,3.66
2023-03-03T19:26:30.367Z,3.46
2023-03-03T19:29:19.049Z,3.73
2023-03-03T19:32:04.597Z,3.69
2023-03-03T19:34:56.907Z,3.67
2023-03-03T19:37:45.653Z,3.45
2023-03-03T19:40:31.660Z,3.59
2023-03-03T19:43:08.938Z,3.57
2023-03-03T19:46:12.683Z,3.42
2023-03-03T19:49:01.390Z,3.39
2023-03-03T19:51:58.909Z,3.43
2023-03-03T19:54:50.901Z,3.34
2023-03-03T19:57:40.213Z,3.36
2023-03-03T20:00:15.516Z,3.22
2023-03-03T20:02:58.215Z,3.17
2023-03-03T20:05:50.290Z,3.11
2023-03-03T20:08:47.674Z,3.16
2023-03-03T20:11:46.143Z,3.24
2023-03-03T20:14:32.026Z,3.38
2023-03-03T20:17:26.550Z,3.07
2023-03-03T20:20:07.931Z,3.20
2023-03-03T20:22:54.415Z,3.15
2023-03-03T20:25:46.447Z,3.17
2023-03-03T20:28:22.373Z,3.54
2023-03-03T20:31:14.219Z,3.53
2023-03-03T20:34:20.283Z,3.45
2023-03-03T20:37:13.824Z,3.32
2023-03-03T20:40:10.630Z,3.55
2023-03-03T20:43:12.904Z,3.59
2023-03-03T20:46:22.063Z,3.55
2023-03-03T20:49:01.414Z,3.56
2023-03-03T20:52:03.738Z,3.62
2023-03-03T20:54:30.990Z,3.67
2023-03-03T20:57:04.260Z,3.96
2023-03-03T20:59:42.533Z,3.82
2023-03-03T21:02:18.454Z,3.88
2023-03-03T21:04:45.937Z,3.86
2023-03-03T21:07:26.515Z,3.58
2023-03-03T21:10:16.485Z,3.74
2023-03-03T21:12:44.070Z,3.68
2023-03-03T21:15:32.359Z,3.72
2023-03-03T21:18:00.452Z,3.66
2023-03-03T21:20:29.749Z,3.66
2023-03-03T21:22:58.914Z,3.68
2023-03-03T21:25:41.658Z,3.53
2023-03-03T21:28:27.475Z,3.37
2023-03-03T21:31:15.788Z,3.56
2023-03-03T21:33:46.352Z,3.55
2023-03-03T21:36:17.156Z,3.75
2023-03-03T21:38:46.319Z,3.43
2023-03-03T21:41:15.686Z,3.44
2023-03-03T21:43:46.074Z,3.34
2023-03-03T21:46:17.766Z,3.55
2023-03-03T21:48:46.178Z,3.57
2023-03-03T21:51:14.285Z,3.51
2023-03-03T21:53:44.089Z,3.59
2023-03-03T21:56:13.983Z,3.62
2023-03-03T21:58:42.732Z,3.65
2023-03-03T22:01:10.506Z,3.63
2023-03-03T22:03:37.829Z,3.57
2023-03-03T22:06:05.673Z,3.52
2023-03-03T22:08:33.172Z,3.83
2023-03-03T22:11:00.707Z,3.99
2023-03-03T22:13:28.219Z,4.05
2023-03-03T22:15:55.843Z,3.98
2023-03-03T22:18:23.318Z,3.77
2023-03-03T22:20:51.007Z,3.97
2023-03-03T22:23:19.147Z,4.11
2023-03-03T22:25:48.072Z,4.06
2023-03-03T22:28:15.349Z,3.85
2023-03-03T22:30:43.459Z,3.89
2023-03-03T22:33:11.114Z,4.00
2023-03-03T22:35:38.938Z,4.16
2023-03-03T22:38:06.213Z,4.31
2023-03-03T22:40:33.964Z,4.35
2023-03-03T22:43:01.281Z,4.33
2023-03-03T22:45:28.871Z,4.09
2023-03-03T22:47:56.342Z,4.38
2023-03-03T22:50:24.114Z,4.47
2023-03-03T22:52:51.461Z,4.20
2023-03-03T22:55:19.067Z,4.35
2023-03-03T22:57:46.270Z,4.16
2023-03-03T23:00:15.103Z,4.22
2023-03-03T23:02:42.410Z,4.24
2023-03-03T23:05:11.130Z,4.31
2023-03-03T23:07:40.257Z,4.24
2023-03-03T23:10:08.884Z,4.41
2023-03-03T23:12:36.469Z,4.33
2023-03-03T23:15:06.560Z,4.37
2023-03-03T23:17:33.860Z,4.37
2023-03-03T23:20:01.483Z,4.38
2023-03-03T23:22:28.730Z,4.36
2023-03-03T23:24:56.258Z,4.23
2023-03-03T23:27:23.510Z,4.43
2023-03-03T23:29:52.401Z,4.58
2023-03-03T23:32:20.966Z,4.57
2023-03-03T23:34:48.607Z,4.41
2023-03-03T23:37:15.852Z,4.28
2023-03-03T23:39:43.507Z,4.57
2023-03-03T23:42:10.977Z,4.47
2023-03-03T23:44:40.695Z,4.63
2023-03-03T23:47:08.941Z,4.48
2023-03-03T23:49:36.678Z,4.58
2023-03-03T23:52:04.676Z,4.55
2023-03-03T23:54:32.259Z,4.75
2023-03-03T23:56:59.492Z,4.63
2023-03-03T23:59:27.075Z,4.74
